Time,TemperatureF,DewpointF,PressureIn,WindDirection,WindDirectionDegrees,WindSpeedMPH,WindSpeedGustMPH,Humidity,HourlyPrecipIn,Conditions,Clouds,dailyrainin,SoftwareType,DateUTC
2013-02-09 00:00:00,40.1,36.3,30.31,NNE,23,0.4,0.7,86,0.00,,,0.00,WUHU216HW,2013-02-09 08:00:00,
2013-02-09 00:05:00,40.1,36.3,30.31,NE,45,0.0,0.7,86,0.00,,,0.00,WUHU216HW,2013-02-09 08:05:00,
2013-02-09 00:10:00,40.3,36.7,30.31,ENE,68,0.0,0.4,87,0.00,,,0.00,WUHU216HW,2013-02-09 08:10:00,
2013-02-09 00:15:00,40.3,36.7,30.31,East,90,0.0,0.0,87,0.00,,,0.00,WUHU216HW,2013-02-09 08:15:00,
2013-02-09 00:20:00,40.3,36.7,30.31,NNE,23,0.0,0.0,87,0.00,,,0.00,WUHU216HW,2013-02-09 08:20:00,
2013-02-09 00:25:00,40.3,36.7,30.31,ENE,68,0.7,0.9,87,0.00,,,0.00,WUHU216HW,2013-02-09 08:25:00,
2013-02-09 00:30:00,40.3,36.7,30.31,ENE,68,0.4,0.9,87,0.00,,,0.00,WUHU216HW,2013-02-09 08:30:00,
2013-02-09 00:35:00,40.3,36.7,30.30,East,90,0.0,0.9,87,0.00,,,0.00,WUHU216HW,2013-02-09 08:35:00,
2013-02-09 00:40:00,40.3,36.7,30.31,NNE,23,0.7,0.9,87,0.00,,,0.00,WUHU216HW,2013-02-09 08:40:00,
2013-02-09 00:45:00,40.1,36.5,30.31,ENE,68,0.0,0.9,87,0.00,,,0.00,WUHU216HW,2013-02-09 08:45:00,
2013-02-09 00:50:00,40.3,36.7,30.31,NW,315,0.0,0.9,87,0.00,,,0.00,WUHU216HW,2013-02-09 08:50:00,
2013-02-09 00:55:00,40.3,36.7,30.31,NW,315,1.1,1.1,87,0.00,,,0.00,WUHU216HW,2013-02-09 08:55:00,
2013-02-09 01:00:00,40.5,36.9,30.31,NNE,23,2.5,2.5,87,0.00,,,0.00,WUHU216HW,2013-02-09 09:00:00,
2013-02-09 01:05:00,40.7,37.1,30.31,NNE,23,1.1,2.5,87,0.00,,,0.00,WUHU216HW,2013-02-09 09:05:00,
2013-02-09 01:10:00,40.7,37.1,30.30,North,0,0.0,1.8,87,0.00,,,0.00,WUHU216HW,2013-02-09 09:10:00,
2013-02-09 01:15:00,40.7,37.1,30.30,North,0,0.0,1.1,87,0.00,,,0.00,WUHU216HW,2013-02-09 09:15:00,
2013-02-09 01:20:00,40.7,37.1,30.31,North,0,0.0,0.0,87,0.00,,,0.00,WUHU216HW,2013-02-09 09:20:00,
2013-02-09 01:25:00,40.5,36.9,30.31,NNE,23,0.0,0.0,87,0.00,,,0.00,WUHU216HW,2013-02-09 09:25:00,
2013-02-09 01:30:00,40.5,36.9,30.31,NNE,23,0.0,0.0,87,0.00,,,0.00,WUHU216HW,2013-02-09 09:30:00,
2013-02-09 01:35:00,40.3,36.7,30.31,NNE,23,0.0,0.0,87,0.00,,,0.00,WUHU216HW,2013-02-09 09:35:00,
2013-02-09 01:40:00,40.3,36.7,30.31,NE,45,0.0,0.0,87,0.00,,,0.00,WUHU216HW,2013-02-09 09:40:00,
2013-02-09 01:45:00,40.3,36.7,30.31,NE,45,0.0,0.0,87,0.00,,,0.00,WUHU216HW,2013-02-09 09:45:00,
2013-02-09 01:50:00,40.3,36.7,30.31,NNE,23,0.0,0.0,87,0.00,,,0.00,WUHU216HW,2013-02-09 09:50:00,
2013-02-09 01:55:00,40.3,36.7,30.31,NNE,23,0.0,0.0,87,0.00,,,0.00,WUHU216HW,2013-02-09 09:55:00,
2013-02-09 02:00:00,40.3,36.7,30.31,NE,45,0.0,0.0,87,0.00,,,0.00,WUHU216HW,2013-02-09 10:00:00,
2013-02-09 02:05:00,40.3,36.7,30.31,NE,45,0.0,0.0,87,0.00,,,0.00,WUHU216HW,2013-02-09 10:05:00,
2013-02-09 02:10:00,40.3,36.7,30.31,NE,45,0.0,0.0,87,0.00,,,0.00,WUHU216HW,2013-02-09 10:10:00,
2013-02-09 02:15:00,40.3,36.7,30.31,ENE,68,0.0,0.0,87,0.00,,,0.00,WUHU216HW,2013-02-09 10:15:00,
2013-02-09 02:20:00,40.3,36.7,30.31,ENE,68,0.0,0.0,87,0.00,,,0.00,WUHU216HW,2013-02-09 10:20:00,
2013-02-09 02:25:00,40.3,36.7,30.31,ENE,68,0.0,0.0,87,0.00,,,0.00,WUHU216HW,2013-02-09 10:25:00,
2013-02-09 02:30:00,40.3,36.7,30.31,ENE,68,0.0,0.0,87,0.00,,,0.00,WUHU216HW,2013-02-09 10:30:00,
2013-02-09 02:35:00,40.3,36.7,30.31,ENE,68,0.0,0.0,87,0.00,,,0.00,WUHU216HW,2013-02-09 10:35:00,
2013-02-09 02:40:00,40.3,36.7,30.31,ENE,68,0.0,0.0,87,0.00,,,0.00,WUHU216HW,2013-02-09 10:40:00,
2013-02-09 02:45:00,40.3,36.7,30.30,ENE,68,0.0,0.0,87,0.00,,,0.00,WUHU216HW,2013-02-09 10:45:00,
2013-02-09 02:50:00,40.3,36.7,30.30,ENE,68,0.0,0.4,87,0.00,,,0.00,WUHU216HW,2013-02-09 10:50:00,
2013-02-09 02:55:00,40.3,37.0,30.30,East,90,0.7,0.7,88,0.00,,,0.00,WUHU216HW,2013-02-09 10:55:00,
2013-02-09 03:00:00,40.3,37.0,30.30,ENE,68,0.0,0.7,88,0.00,,,0.00,WUHU216HW,2013-02-09 11:00:00,
2013-02-09 03:05:00,40.3,37.0,30.30,ENE,68,0.0,0.4,88,0.00,,,0.00,WUHU216HW,2013-02-09 11:05:00,
2013-02-09 03:10:00,40.3,37.0,30.30,ENE,68,0.0,0.0,88,0.00,,,0.00,WUHU216HW,2013-02-09 11:10:00,
2013-02-09 03:15:00,40.1,36.8,30.30,SE,135,0.0,0.0,88,0.00,,,0.00,WUHU216HW,2013-02-09 11:15:00,
2013-02-09 03:20:00,40.1,36.8,30.30,SE,135,0.0,0.0,88,0.00,,,0.00,WUHU216HW,2013-02-09 11:20:00,
2013-02-09 03:25:00,40.1,36.8,30.30,ENE,68,0.4,0.4,88,0.00,,,0.00,WUHU216HW,2013-02-09 11:25:00,
2013-02-09 03:30:00,40.1,37.2,30.30,ENE,68,0.0,0.4,89,0.00,,,0.00,WUHU216HW,2013-02-09 11:30:00,
2013-02-09 03:35:00,40.1,37.2,30.30,WSW,248,1.6,1.6,89,0.00,,,0.00,WUHU216HW,2013-02-09 11:35:00,
2013-02-09 03:40:00,40.3,37.4,30.30,WNW,293,1.8,2.5,89,0.00,,,0.00,WUHU216HW,2013-02-09 11:40:00,
2013-02-09 03:45:00,40.5,37.5,30.30,West,270,2.9,2.9,89,0.00,,,0.00,WUHU216HW,2013-02-09 11:45:00,
2013-02-09 03:50:00,40.5,37.5,30.30,West,270,1.6,2.9,89,0.00,,,0.00,WUHU216HW,2013-02-09 11:50:00,
2013-02-09 03:55:00,40.5,37.5,30.30,WNW,293,1.6,2.5,89,0.00,,,0.00,WUHU216HW,2013-02-09 11:55:00,
2013-02-09 04:00:00,40.5,37.5,30.30,NW,315,1.6,2.2,89,0.00,,,0.00,WUHU216HW,2013-02-09 12:00:00,
2013-02-09 04:05:00,40.5,37.8,30.30,NW,315,1.1,2.0,90,0.00,,,0.00,WUHU216HW,2013-02-09 12:05:00,
2013-02-09 04:10:00,40.3,37.6,30.30,NNW,338,0.4,2.0,90,0.00,,,0.00,WUHU216HW,2013-02-09 12:10:00,
2013-02-09 04:15:00,40.3,37.6,30.30,North,0,0.9,1.8,90,0.00,,,0.00,WUHU216HW,2013-02-09 12:15:00,
2013-02-09 04:20:00,40.3,37.6,30.30,North,0,0.0,1.1,90,0.00,,,0.00,WUHU216HW,2013-02-09 12:20:00,
2013-02-09 04:25:00,40.3,37.6,30.30,NE,45,0.0,0.9,90,0.00,,,0.00,WUHU216HW,2013-02-09 12:25:00,
2013-02-09 04:30:00,40.1,37.4,30.30,NE,45,0.0,0.9,90,0.00,,,0.00,WUHU216HW,2013-02-09 12:30:00,
2013-02-09 04:35:00,40.0,37.3,30.30,NE,45,0.0,0.2,90,0.00,,,0.00,WUHU216HW,2013-02-09 12:35:00,
2013-02-09 04:40:00,40.0,37.3,30.30,NE,45,0.0,0.0,90,0.00,,,0.00,WUHU216HW,2013-02-09 12:40:00,
2013-02-09 04:45:00,40.0,37.3,30.30,SSE,158,0.0,0.0,90,0.00,,,0.00,WUHU216HW,2013-02-09 12:45:00,
2013-02-09 04:50:00,40.1,37.4,30.30,South,180,0.0,0.7,90,0.00,,,0.00,WUHU216HW,2013-02-09 12:50:00,
2013-02-09 04:55:00,40.1,37.4,30.30,SE,135,0.0,0.7,90,0.00,,,0.00,WUHU216HW,2013-02-09 12:55:00,
2013-02-09 05:00:00,40.0,37.3,30.30,SE,135,0.0,0.7,90,0.00,,,0.00,WUHU216HW,2013-02-09 13:00:00,
2013-02-09 05:06:00,40.0,37.3,30.30,SE,135,0.0,0.0,90,0.00,,,0.00,WUHU216HW,2013-02-09 13:06:00,
2013-02-09 05:11:00,40.0,37.3,30.30,SE,135,0.0,0.0,90,0.00,,,0.00,WUHU216HW,2013-02-09 13:11:00,
2013-02-09 05:16:00,40.0,37.3,30.30,SE,135,0.0,0.0,90,0.00,,,0.00,WUHU216HW,2013-02-09 13:16:00,
2013-02-09 05:21:00,40.0,37.3,30.30,SE,135,0.0,0.0,90,0.00,,,0.00,WUHU216HW,2013-02-09 13:21:00,
2013-02-09 05:26:00,40.0,37.3,30.30,SE,135,0.0,0.0,90,0.00,,,0.00,WUHU216HW,2013-02-09 13:26:00,
2013-02-09 05:31:00,40.0,37.3,30.30,ESE,113,0.0,0.0,90,0.00,,,0.00,WUHU216HW,2013-02-09 13:31:00,
2013-02-09 05:36:00,40.0,37.3,30.30,ESE,113,0.0,0.0,90,0.00,,,0.00,WUHU216HW,2013-02-09 13:36:00,
2013-02-09 05:41:00,40.0,37.3,30.30,ESE,113,0.0,0.0,90,0.00,,,0.00,WUHU216HW,2013-02-09 13:41:00,
2013-02-09 05:46:00,40.0,37.3,30.30,East,90,0.0,0.0,90,0.00,,,0.00,WUHU216HW,2013-02-09 13:46:00,
2013-02-09 05:51:00,40.0,37.3,30.30,East,90,0.0,0.0,90,0.00,,,0.00,WUHU216HW,2013-02-09 13:51:00,
2013-02-09 05:56:00,40.0,37.3,30.30,East,90,0.0,0.0,90,0.00,,,0.00,WUHU216HW,2013-02-09 13:56:00,
2013-02-09 06:01:00,40.0,37.3,30.30,East,90,0.0,0.0,90,0.00,,,0.00,WUHU216HW,2013-02-09 14:01:00,
2013-02-09 06:06:00,40.0,37.3,30.30,East,90,0.0,0.0,90,0.00,,,0.00,WUHU216HW,2013-02-09 14:06:00,
2013-02-09 06:11:00,40.0,37.3,30.30,East,90,0.0,0.0,90,0.00,,,0.00,WUHU216HW,2013-02-09 14:11:00,
2013-02-09 06:16:00,40.0,37.3,30.30,East,90,0.0,0.0,90,0.00,,,0.00,WUHU216HW,2013-02-09 14:16:00,
2013-02-09 06:21:00,40.0,37.3,30.30,East,90,0.0,0.0,90,0.00,,,0.00,WUHU216HW,2013-02-09 14:21:00,
2013-02-09 06:26:00,40.0,37.3,30.30,East,90,0.0,0.4,90,0.00,,,0.00,WUHU216HW,2013-02-09 14:26:00,
2013-02-09 06:31:00,40.0,37.5,30.30,East,90,0.4,0.4,91,0.00,,,0.00,WUHU216HW,2013-02-09 14:31:00,
2013-02-09 06:36:00,40.0,37.5,30.30,SE,135,0.4,0.4,91,0.00,,,0.00,WUHU216HW,2013-02-09 14:36:00,
2013-02-09 06:41:00,40.0,37.5,30.30,East,90,0.0,0.4,91,0.00,,,0.00,WUHU216HW,2013-02-09 14:41:00,
2013-02-09 06:46:00,40.0,37.5,30.31,ENE,68,0.0,0.4,91,0.00,,,0.00,WUHU216HW,2013-02-09 14:46:00,
2013-02-09 06:51:00,40.0,37.5,30.30,ESE,113,0.4,0.7,91,0.00,,,0.00,WUHU216HW,2013-02-09 14:51:00,
2013-02-09 06:56:00,39.8,37.4,30.30,ENE,68,0.0,0.9,91,0.00,,,0.00,WUHU216HW,2013-02-09 14:56:00,
2013-02-09 07:01:00,39.8,37.4,30.30,ENE,68,0.0,0.9,91,0.00,,,0.00,WUHU216HW,2013-02-09 15:01:00,
2013-02-09 07:06:00,39.8,37.4,30.30,East,90,0.4,0.9,91,0.00,,,0.00,WUHU216HW,2013-02-09 15:06:00,
2013-02-09 07:11:00,39.8,37.4,30.30,ENE,68,0.2,0.9,91,0.00,,,0.00,WUHU216HW,2013-02-09 15:11:00,
2013-02-09 07:16:00,39.8,37.4,30.30,East,90,0.0,1.8,91,0.00,,,0.00,WUHU216HW,2013-02-09 15:16:00,
2013-02-09 07:21:00,39.8,37.4,30.30,ESE,113,0.7,1.8,91,0.00,,,0.00,WUHU216HW,2013-02-09 15:21:00,
2013-02-09 07:26:00,39.8,37.4,30.30,ENE,68,0.0,0.7,91,0.00,,,0.00,WUHU216HW,2013-02-09 15:26:00,
2013-02-09 07:31:00,39.8,37.4,30.30,East,90,1.1,1.8,91,0.00,,,0.00,WUHU216HW,2013-02-09 15:31:00,
2013-02-09 07:36:00,39.8,37.4,30.30,East,90,1.3,1.8,91,0.00,,,0.00,WUHU216HW,2013-02-09 15:36:00,
2013-02-09 07:41:00,39.8,37.4,30.30,NE,45,0.7,1.6,91,0.00,,,0.00,WUHU216HW,2013-02-09 15:41:00,
2013-02-09 07:46:00,39.8,37.4,30.30,ENE,68,1.6,2.0,91,0.00,,,0.00,WUHU216HW,2013-02-09 15:46:00,
2013-02-09 07:51:00,39.8,37.4,30.30,ESE,113,0.7,2.0,91,0.00,,,0.00,WUHU216HW,2013-02-09 15:51:00,
2013-02-09 07:56:00,40.0,37.5,30.30,ENE,68,0.0,1.1,91,0.00,,,0.00,WUHU216HW,2013-02-09 15:56:00,
2013-02-09 08:01:00,40.0,37.8,30.30,ENE,68,0.2,0.7,92,0.00,,,0.00,WUHU216HW,2013-02-09 16:01:00,
2013-02-09 08:06:00,40.0,37.8,30.30,SE,135,0.2,0.7,92,0.00,,,0.00,WUHU216HW,2013-02-09 16:06:00,
2013-02-09 08:11:00,40.0,37.8,30.30,South,180,0.7,0.9,92,0.00,,,0.00,WUHU216HW,2013-02-09 16:11:00,
2013-02-09 08:16:00,40.1,38.0,30.30,SE,135,0.0,0.9,92,0.00,,,0.00,WUHU216HW,2013-02-09 16:16:00,
2013-02-09 08:21:00,40.3,38.2,30.30,ESE,113,0.7,0.7,92,0.00,,,0.00,WUHU216HW,2013-02-09 16:21:00,
2013-02-09 08:26:00,40.3,38.2,30.30,ESE,113,0.0,0.7,92,0.00,,,0.00,WUHU216HW,2013-02-09 16:26:00,
2013-02-09 08:31:00,40.5,38.3,30.30,SE,135,0.2,0.2,92,0.00,,,0.00,WUHU216HW,2013-02-09 16:31:00,
2013-02-09 08:36:00,40.7,38.5,30.30,SE,135,0.4,0.4,92,0.00,,,0.00,WUHU216HW,2013-02-09 16:36:00,
2013-02-09 08:41:00,40.9,38.7,30.30,SE,135,0.4,0.4,92,0.00,,,0.00,WUHU216HW,2013-02-09 16:41:00,
2013-02-09 08:46:00,41.0,38.9,30.30,SE,135,0.4,0.4,92,0.00,,,0.00,WUHU216HW,2013-02-09 16:46:00,
2013-02-09 08:51:00,41.2,38.8,30.30,East,90,0.4,1.6,91,0.00,,,0.00,WUHU216HW,2013-02-09 16:51:00,
2013-02-09 08:56:00,41.2,38.8,30.30,East,90,0.0,1.6,91,0.00,,,0.00,WUHU216HW,2013-02-09 16:56:00,
2013-02-09 09:01:00,41.4,39.0,30.30,SE,135,0.9,1.1,91,0.00,,,0.00,WUHU216HW,2013-02-09 17:01:00,
2013-02-09 09:06:00,41.4,39.0,30.31,ESE,113,1.1,1.1,91,0.00,,,0.00,WUHU216HW,2013-02-09 17:06:00,
2013-02-09 09:11:00,41.4,39.0,30.31,East,90,0.0,1.6,91,0.00,,,0.00,WUHU216HW,2013-02-09 17:11:00,
2013-02-09 09:16:00,41.6,39.2,30.31,South,180,3.1,3.1,91,0.00,,,0.00,WUHU216HW,2013-02-09 17:16:00,
2013-02-09 09:21:00,41.8,39.1,30.31,SE,135,0.4,3.1,90,0.00,,,0.00,WUHU216HW,2013-02-09 17:21:00,
2013-02-09 09:26:00,41.9,39.2,30.31,South,180,0.4,3.1,90,0.00,,,0.00,WUHU216HW,2013-02-09 17:26:00,
2013-02-09 09:31:00,42.1,39.4,30.31,ESE,113,0.2,2.7,90,0.00,,,0.00,WUHU216HW,2013-02-09 17:31:00,
2013-02-09 09:36:00,42.5,39.8,30.31,ESE,113,0.7,0.7,90,0.00,,,0.00,WUHU216HW,2013-02-09 17:36:00,
2013-02-09 09:41:00,42.5,39.8,30.31,East,90,0.7,1.1,90,0.00,,,0.00,WUHU216HW,2013-02-09 17:41:00,
2013-02-09 09:46:00,43.0,40.1,30.31,SE,135,0.4,2.2,89,0.00,,,0.00,WUHU216HW,2013-02-09 17:46:00,
2013-02-09 09:51:00,43.2,40.2,30.31,SSE,158,1.6,2.2,89,0.00,,,0.00,WUHU216HW,2013-02-09 17:51:00,
2013-02-09 09:56:00,43.4,40.4,30.31,South,180,1.1,1.6,89,0.00,,,0.00,WUHU216HW,2013-02-09 17:56:00,
2013-02-09 10:01:00,43.6,40.2,30.31,South,180,0.9,1.1,88,0.00,,,0.00,WUHU216HW,2013-02-09 18:01:00,
2013-02-09 10:06:00,43.9,40.6,30.31,SSE,158,1.1,2.7,88,0.00,,,0.00,WUHU216HW,2013-02-09 18:06:00,
2013-02-09 10:11:00,44.1,41.1,30.32,SE,135,0.0,2.7,89,0.00,,,0.00,WUHU216HW,2013-02-09 18:11:00,
2013-02-09 10:16:00,44.3,41.0,30.32,SE,135,0.4,1.6,88,0.00,,,0.00,WUHU216HW,2013-02-09 18:16:00,
2013-02-09 10:21:00,44.1,40.8,30.32,SE,135,0.0,1.6,88,0.00,,,0.00,WUHU216HW,2013-02-09 18:21:00,
2013-02-09 10:26:00,44.1,40.8,30.32,South,180,1.1,1.8,88,0.00,,,0.00,WUHU216HW,2013-02-09 18:26:00,
2013-02-09 10:31:00,44.1,40.8,30.32,SE,135,0.4,1.8,88,0.00,,,0.00,WUHU216HW,2013-02-09 18:31:00,
2013-02-09 10:36:00,44.1,40.8,30.32,SSE,158,0.4,1.8,88,0.00,,,0.00,WUHU216HW,2013-02-09 18:36:00,
2013-02-09 10:41:00,44.3,41.0,30.33,SE,135,0.2,1.8,88,0.00,,,0.00,WUHU216HW,2013-02-09 18:41:00,
2013-02-09 10:46:00,44.3,41.0,30.33,SE,135,0.0,1.1,88,0.00,,,0.00,WUHU216HW,2013-02-09 18:46:00,
2013-02-09 10:51:00,44.5,41.1,30.32,SE,135,0.4,0.7,88,0.00,,,0.00,WUHU216HW,2013-02-09 18:51:00,
2013-02-09 10:56:00,45.0,41.7,30.32,SE,135,0.7,0.7,88,0.00,,,0.00,WUHU216HW,2013-02-09 18:56:00,
2013-02-09 11:01:00,45.2,41.6,30.32,SE,135,0.0,0.7,87,0.00,,,0.00,WUHU216HW,2013-02-09 19:01:00,
2013-02-09 11:06:00,45.5,42.0,30.32,SE,135,0.0,0.7,87,0.00,,,0.00,WUHU216HW,2013-02-09 19:06:00,
2013-02-09 11:11:00,45.5,42.0,30.32,SE,135,0.0,0.2,87,0.00,,,0.00,WUHU216HW,2013-02-09 19:11:00,
2013-02-09 11:16:00,45.4,41.1,30.32,South,180,1.8,1.8,85,0.00,,,0.00,WUHU216HW,2013-02-09 19:16:00,
2013-02-09 11:21:00,45.2,41.0,30.32,SSW,203,0.4,1.8,85,0.00,,,0.00,WUHU216HW,2013-02-09 19:21:00,
2013-02-09 11:26:00,45.0,40.8,30.32,SSW,203,0.4,1.8,85,0.00,,,0.00,WUHU216HW,2013-02-09 19:26:00,
2013-02-09 11:31:00,44.8,40.6,30.32,SSW,203,0.9,1.1,85,0.00,,,0.00,WUHU216HW,2013-02-09 19:31:00,
2013-02-09 11:36:00,44.6,40.4,30.32,SSE,158,0.7,2.2,85,0.00,,,0.00,WUHU216HW,2013-02-09 19:36:00,
2013-02-09 11:41:00,44.6,40.7,30.32,SE,135,0.0,2.2,86,0.00,,,0.00,WUHU216HW,2013-02-09 19:41:00,
2013-02-09 11:46:00,44.6,40.4,30.32,SSE,158,1.1,1.3,85,0.00,,,0.00,WUHU216HW,2013-02-09 19:46:00,
2013-02-09 11:51:00,44.5,40.2,30.32,SSE,158,0.9,1.8,85,0.00,,,0.00,WUHU216HW,2013-02-09 19:51:00,
2013-02-09 11:56:00,44.3,40.3,30.31,ESE,113,0.0,1.8,86,0.00,,,0.00,WUHU216HW,2013-02-09 19:56:00,
2013-02-09 12:01:00,44.5,40.5,30.32,South,180,1.8,1.8,86,0.00,,,0.00,WUHU216HW,2013-02-09 20:01:00,
2013-02-09 12:06:00,44.3,40.1,30.31,SE,135,0.0,1.8,85,0.00,,,0.00,WUHU216HW,2013-02-09 20:06:00,
2013-02-09 12:11:00,44.3,40.1,30.31,ENE,68,0.9,0.9,85,0.00,,,0.00,WUHU216HW,2013-02-09 20:11:00,
2013-02-09 12:16:00,44.5,40.5,30.31,NNW,338,0.0,0.9,86,0.00,,,0.00,WUHU216HW,2013-02-09 20:16:00,
2013-02-09 12:21:00,44.8,40.6,30.31,ESE,113,0.0,0.9,85,0.00,,,0.00,WUHU216HW,2013-02-09 20:21:00,
2013-02-09 12:26:00,45.0,40.8,30.31,WSW,248,1.1,1.1,85,0.00,,,0.00,WUHU216HW,2013-02-09 20:26:00,
2013-02-09 12:31:00,45.0,40.5,30.31,NW,315,0.0,1.1,84,0.00,,,0.00,WUHU216HW,2013-02-09 20:31:00,
2013-02-09 12:36:00,45.4,40.9,30.31,SSW,203,0.4,1.1,84,0.00,,,0.00,WUHU216HW,2013-02-09 20:36:00,
2013-02-09 12:41:00,45.7,41.2,30.31,South,180,0.0,0.4,84,0.00,,,0.00,WUHU216HW,2013-02-09 20:41:00,
2013-02-09 12:46:00,45.9,40.4,30.31,South,180,0.0,0.4,81,0.00,,,0.00,WUHU216HW,2013-02-09 20:46:00,
2013-02-09 12:51:00,45.9,41.0,30.30,WNW,293,0.0,0.0,83,0.00,,,0.00,WUHU216HW,2013-02-09 20:51:00,
2013-02-09 12:56:00,46.1,40.6,30.31,West,270,0.0,0.0,81,0.00,,,0.00,WUHU216HW,2013-02-09 20:56:00,
2013-02-09 13:01:00,45.9,40.1,30.31,SW,225,0.7,0.7,80,0.00,,,0.00,WUHU216HW,2013-02-09 21:01:00,
2013-02-09 13:06:00,45.7,40.2,30.31,SW,225,0.0,0.7,81,0.00,,,0.00,WUHU216HW,2013-02-09 21:06:00,
2013-02-09 13:11:00,45.7,40.2,30.31,SW,225,0.0,0.0,81,0.00,,,0.00,WUHU216HW,2013-02-09 21:11:00,
2013-02-09 13:16:00,45.5,40.1,30.31,SW,225,0.0,0.0,81,0.00,,,0.00,WUHU216HW,2013-02-09 21:16:00,
2013-02-09 13:21:00,45.9,40.8,30.30,SW,225,0.0,0.0,82,0.00,,,0.00,WUHU216HW,2013-02-09 21:21:00,
2013-02-09 13:26:00,46.1,41.0,30.30,SSW,203,0.2,0.2,82,0.00,,,0.00,WUHU216HW,2013-02-09 21:26:00,
2013-02-09 13:31:00,46.4,40.0,30.30,SW,225,0.0,0.2,78,0.00,,,0.00,WUHU216HW,2013-02-09 21:31:00,
2013-02-09 13:36:00,46.3,40.1,30.30,NNW,338,0.0,0.0,79,0.00,,,0.00,WUHU216HW,2013-02-09 21:36:00,
2013-02-09 13:41:00,46.4,41.0,30.30,NNW,338,0.0,0.0,81,0.00,,,0.00,WUHU216HW,2013-02-09 21:41:00,
2013-02-09 13:46:00,46.8,41.3,30.30,North,0,0.0,0.0,81,0.00,,,0.00,WUHU216HW,2013-02-09 21:46:00,
2013-02-09 13:51:00,47.0,41.5,30.30,NNW,338,0.0,0.0,81,0.00,,,0.00,WUHU216HW,2013-02-09 21:51:00,
2013-02-09 13:56:00,47.2,41.3,30.30,NNW,338,0.0,0.0,80,0.00,,,0.00,WUHU216HW,2013-02-09 21:56:00,
2013-02-09 14:01:00,47.2,41.3,30.30,NNW,338,0.0,0.0,80,0.00,,,0.00,WUHU216HW,2013-02-09 22:01:00,
2013-02-09 14:06:00,47.3,41.5,30.30,NNW,338,0.0,0.0,80,0.00,,,0.00,WUHU216HW,2013-02-09 22:06:00,
2013-02-09 14:11:00,47.5,41.7,30.30,NNW,338,0.0,0.0,80,0.00,,,0.00,WUHU216HW,2013-02-09 22:11:00,
2013-02-09 14:16:00,47.9,41.9,30.29,SSW,203,0.4,0.4,80,0.00,,,0.00,WUHU216HW,2013-02-09 22:16:00,
2013-02-09 14:21:00,47.9,41.7,30.29,SSW,203,1.1,1.1,79,0.00,,,0.00,WUHU216HW,2013-02-09 22:21:00,
2013-02-09 14:26:00,47.5,41.0,30.29,South,180,2.9,3.1,78,0.00,,,0.00,WUHU216HW,2013-02-09 22:26:00,
2013-02-09 14:31:00,47.2,40.7,30.30,South,180,2.9,3.1,78,0.00,,,0.00,WUHU216HW,2013-02-09 22:31:00,
2013-02-09 14:36:00,46.8,40.3,30.30,SSW,203,1.1,2.9,78,0.00,,,0.00,WUHU216HW,2013-02-09 22:36:00,
2013-02-09 14:41:00,46.6,40.1,30.29,SSW,203,1.1,2.0,78,0.00,,,0.00,WUHU216HW,2013-02-09 22:41:00,
2013-02-09 14:46:00,46.4,40.0,30.30,West,270,0.0,1.8,78,0.00,,,0.00,WUHU216HW,2013-02-09 22:46:00,
2013-02-09 14:51:00,46.1,40.0,30.30,WNW,293,0.0,0.9,79,0.00,,,0.00,WUHU216HW,2013-02-09 22:51:00,
2013-02-09 14:56:00,46.4,40.3,30.30,NW,315,0.7,0.7,79,0.00,,,0.00,WUHU216HW,2013-02-09 22:56:00,
2013-02-09 15:01:00,46.4,40.3,30.30,NW,315,0.0,0.7,79,0.00,,,0.00,WUHU216HW,2013-02-09 23:01:00,
2013-02-09 15:06:00,46.8,40.7,30.30,NW,315,0.0,0.4,79,0.00,,,0.00,WUHU216HW,2013-02-09 23:06:00,
2013-02-09 15:11:00,46.6,40.5,30.30,SW,225,0.0,0.7,79,0.00,,,0.00,WUHU216HW,2013-02-09 23:11:00,
2013-02-09 15:16:00,46.3,39.8,30.30,SSW,203,0.0,0.9,78,0.00,,,0.00,WUHU216HW,2013-02-09 23:16:00,
2013-02-09 15:21:00,46.3,40.1,30.30,South,180,0.9,0.9,79,0.00,,,0.00,WUHU216HW,2013-02-09 23:21:00,
2013-02-09 15:26:00,46.6,40.5,30.30,SSW,203,0.7,0.9,79,0.00,,,0.00,WUHU216HW,2013-02-09 23:26:00,
2013-02-09 15:31:00,46.6,40.1,30.31,South,180,1.6,2.0,78,0.00,,,0.00,WUHU216HW,2013-02-09 23:31:00,
2013-02-09 15:36:00,46.6,40.1,30.31,South,180,1.6,2.0,78,0.00,,,0.00,WUHU216HW,2013-02-09 23:36:00,
2013-02-09 15:41:00,46.4,40.0,30.31,SW,225,0.4,1.8,78,0.00,,,0.00,WUHU216HW,2013-02-09 23:41:00,
2013-02-09 15:46:00,46.1,40.0,30.31,SSW,203,0.4,1.6,79,0.00,,,0.00,WUHU216HW,2013-02-09 23:46:00,
2013-02-09 15:51:00,46.1,40.0,30.31,West,270,0.0,0.9,79,0.00,,,0.00,WUHU216HW,2013-02-09 23:51:00,
2013-02-09 15:56:00,45.7,39.6,30.31,WSW,248,0.0,0.7,79,0.00,,,0.00,WUHU216HW,2013-02-09 23:56:00,
2013-02-09 16:01:00,45.5,39.4,30.31,SE,135,0.0,0.0,79,0.00,,,0.00,WUHU216HW,2013-02-10 00:01:00,
2013-02-09 16:06:00,45.5,39.8,30.32,West,270,1.3,1.3,80,0.00,,,0.00,WUHU216HW,2013-02-10 00:06:00,
2013-02-09 16:11:00,45.4,39.6,30.32,West,270,0.0,1.8,80,0.00,,,0.00,WUHU216HW,2013-02-10 00:11:00,
2013-02-09 16:16:00,45.2,39.7,30.32,West,270,0.7,1.8,81,0.00,,,0.00,WUHU216HW,2013-02-10 00:16:00,
2013-02-09 16:21:00,45.0,39.5,30.32,West,270,0.4,0.7,81,0.00,,,0.00,WUHU216HW,2013-02-10 00:21:00,
2013-02-09 16:26:00,44.6,39.8,30.31,WSW,248,1.8,1.8,83,0.00,,,0.00,WUHU216HW,2013-02-10 00:26:00,
2013-02-09 16:31:00,44.3,40.1,30.31,SW,225,1.6,1.8,85,0.00,,,0.00,WUHU216HW,2013-02-10 00:31:00,
2013-02-09 16:36:00,43.9,39.7,30.32,WSW,248,1.1,2.0,85,0.00,,,0.00,WUHU216HW,2013-02-10 00:36:00,
2013-02-09 16:41:00,43.6,39.6,30.32,West,270,0.0,2.0,86,0.00,,,0.00,WUHU216HW,2013-02-10 00:41:00,
2013-02-09 16:46:00,43.6,39.3,30.32,WNW,293,0.0,1.1,85,0.00,,,0.00,WUHU216HW,2013-02-10 00:46:00,
2013-02-09 16:51:00,43.6,39.3,30.32,WNW,293,0.0,1.1,85,0.00,,,0.00,WUHU216HW,2013-02-10 00:51:00,
2013-02-09 16:56:00,43.6,39.3,30.33,WNW,293,1.3,1.3,85,0.00,,,0.00,WUHU216HW,2013-02-10 00:56:00,
2013-02-09 17:01:00,43.6,39.3,30.32,West,270,1.3,1.6,85,0.00,,,0.00,WUHU216HW,2013-02-10 01:01:00,
2013-02-09 17:06:00,43.6,39.3,30.32,West,270,0.4,1.6,85,0.00,,,0.00,WUHU216HW,2013-02-10 01:06:00,
2013-02-09 17:11:00,43.6,39.3,30.33,WSW,248,0.0,1.1,85,0.00,,,0.00,WUHU216HW,2013-02-10 01:11:00,
2013-02-09 17:16:00,43.6,39.6,30.33,West,270,0.0,0.9,86,0.00,,,0.00,WUHU216HW,2013-02-10 01:16:00,
2013-02-09 17:21:00,43.4,39.4,30.33,WNW,293,0.4,0.4,86,0.00,,,0.00,WUHU216HW,2013-02-10 01:21:00,
2013-02-09 17:26:00,43.4,39.4,30.33,NNW,338,0.0,0.7,86,0.00,,,0.00,WUHU216HW,2013-02-10 01:26:00,
2013-02-09 17:31:00,43.2,39.2,30.33,North,0,0.0,0.7,86,0.00,,,0.00,WUHU216HW,2013-02-10 01:31:00,
2013-02-09 17:36:00,43.2,39.0,30.33,North,0,0.0,0.0,85,0.00,,,0.00,WUHU216HW,2013-02-10 01:36:00,
2013-02-09 17:41:00,43.0,38.8,30.33,North,0,0.0,0.0,85,0.00,,,0.00,WUHU216HW,2013-02-10 01:41:00,
2013-02-09 17:47:00,42.8,38.6,30.33,North,0,0.0,0.0,85,0.00,,,0.00,WUHU216HW,2013-02-10 01:47:00,
2013-02-09 17:52:00,42.8,38.6,30.33,North,0,0.0,0.0,85,0.00,,,0.00,WUHU216HW,2013-02-10 01:52:00,
2013-02-09 17:57:00,42.7,38.7,30.33,North,0,0.0,0.0,86,0.00,,,0.00,WUHU216HW,2013-02-10 01:57:00,
2013-02-09 18:02:00,42.7,38.7,30.33,North,0,0.0,0.0,86,0.00,,,0.00,WUHU216HW,2013-02-10 02:02:00,
2013-02-09 18:07:00,42.5,38.5,30.33,North,0,0.0,0.0,86,0.00,,,0.00,WUHU216HW,2013-02-10 02:07:00,
2013-02-09 18:12:00,42.5,38.5,30.33,North,0,0.0,0.0,86,0.00,,,0.00,WUHU216HW,2013-02-10 02:12:00,
2013-02-09 18:17:00,42.3,38.3,30.33,North,0,0.0,0.0,86,0.00,,,0.00,WUHU216HW,2013-02-10 02:17:00,
2013-02-09 18:22:00,42.3,38.3,30.33,North,0,0.0,0.0,86,0.00,,,0.00,WUHU216HW,2013-02-10 02:22:00,
2013-02-09 18:27:00,42.3,38.7,30.33,North,0,0.0,0.0,87,0.00,,,0.00,WUHU216HW,2013-02-10 02:27:00,
2013-02-09 18:32:00,42.1,38.5,30.33,North,0,0.0,0.0,87,0.00,,,0.00,WUHU216HW,2013-02-10 02:32:00,
2013-02-09 18:37:00,42.1,38.5,30.33,North,0,0.0,0.0,87,0.00,,,0.00,WUHU216HW,2013-02-10 02:37:00,
2013-02-09 18:42:00,42.1,38.5,30.33,NE,45,0.0,0.0,87,0.00,,,0.00,WUHU216HW,2013-02-10 02:42:00,
2013-02-09 18:47:00,42.1,38.5,30.33,NE,45,0.0,0.0,87,0.00,,,0.00,WUHU216HW,2013-02-10 02:47:00,
2013-02-09 18:52:00,41.9,38.4,30.33,ENE,68,0.0,0.4,87,0.00,,,0.00,WUHU216HW,2013-02-10 02:52:00,
2013-02-09 18:57:00,41.8,38.2,30.33,ENE,68,0.4,0.4,87,0.00,,,0.00,WUHU216HW,2013-02-10 02:57:00,
2013-02-09 19:02:00,41.8,38.2,30.33,ENE,68,0.7,0.9,87,0.00,,,0.00,WUHU216HW,2013-02-10 03:02:00,
2013-02-09 19:07:00,41.8,38.2,30.33,East,90,0.4,0.9,87,0.00,,,0.00,WUHU216HW,2013-02-10 03:07:00,
2013-02-09 19:12:00,41.8,38.2,30.33,ENE,68,0.4,0.9,87,0.00,,,0.00,WUHU216HW,2013-02-10 03:12:00,
2013-02-09 19:17:00,41.8,38.4,30.33,East,90,0.0,0.9,88,0.00,,,0.00,WUHU216HW,2013-02-10 03:17:00,
2013-02-09 19:22:00,41.8,38.4,30.33,East,90,0.0,0.0,88,0.00,,,0.00,WUHU216HW,2013-02-10 03:22:00,
2013-02-09 19:27:00,41.8,38.4,30.33,ENE,68,0.0,0.0,88,0.00,,,0.00,WUHU216HW,2013-02-10 03:27:00,
2013-02-09 19:32:00,41.8,38.8,30.33,ENE,68,0.0,0.0,89,0.00,,,0.00,WUHU216HW,2013-02-10 03:32:00,
2013-02-09 19:37:00,41.8,38.8,30.33,ENE,68,0.0,0.0,89,0.00,,,0.00,WUHU216HW,2013-02-10 03:37:00,
2013-02-09 19:42:00,41.8,38.8,30.33,ENE,68,0.0,0.0,89,0.00,,,0.00,WUHU216HW,2013-02-10 03:42:00,
2013-02-09 19:47:00,41.8,38.8,30.33,ENE,68,0.0,0.0,89,0.00,,,0.00,WUHU216HW,2013-02-10 03:47:00,
2013-02-09 19:52:00,41.6,38.6,30.33,ENE,68,0.0,0.0,89,0.00,,,0.00,WUHU216HW,2013-02-10 03:52:00,
2013-02-09 19:57:00,41.6,38.9,30.33,ENE,68,0.0,0.0,90,0.00,,,0.00,WUHU216HW,2013-02-10 03:57:00,
2013-02-09 20:02:00,41.6,38.9,30.33,ENE,68,0.0,0.0,90,0.00,,,0.00,WUHU216HW,2013-02-10 04:02:00,
2013-02-09 20:07:00,41.6,38.9,30.33,ENE,68,0.0,0.0,90,0.00,,,0.00,WUHU216HW,2013-02-10 04:07:00,
2013-02-09 20:12:00,41.6,38.9,30.33,ENE,68,0.0,0.0,90,0.00,,,0.00,WUHU216HW,2013-02-10 04:12:00,
2013-02-09 20:17:00,41.6,38.9,30.33,NNE,23,0.0,0.0,90,0.00,,,0.00,WUHU216HW,2013-02-10 04:17:00,
2013-02-09 20:22:00,41.6,38.9,30.34,NE,45,0.0,0.0,90,0.00,,,0.00,WUHU216HW,2013-02-10 04:22:00,
2013-02-09 20:27:00,41.6,38.9,30.33,NE,45,0.0,0.0,90,0.00,,,0.00,WUHU216HW,2013-02-10 04:27:00,
2013-02-09 20:32:00,41.6,38.9,30.34,NE,45,0.0,0.0,90,0.00,,,0.00,WUHU216HW,2013-02-10 04:32:00,
2013-02-09 20:37:00,41.6,38.9,30.34,NNE,23,0.4,0.4,90,0.00,,,0.00,WUHU216HW,2013-02-10 04:37:00,
2013-02-09 20:42:00,41.6,38.9,30.34,NNE,23,0.0,0.4,90,0.00,,,0.00,WUHU216HW,2013-02-10 04:42:00,
2013-02-09 20:47:00,41.6,38.9,30.34,NNE,23,0.0,0.4,90,0.00,,,0.00,WUHU216HW,2013-02-10 04:47:00,
2013-02-09 20:52:00,41.6,38.9,30.34,NE,45,0.4,0.7,90,0.00,,,0.00,WUHU216HW,2013-02-10 04:52:00,
2013-02-09 20:57:00,41.6,38.9,30.34,NNE,23,0.4,0.7,90,0.00,,,0.00,WUHU216HW,2013-02-10 04:57:00,
2013-02-09 21:02:00,41.6,38.9,30.34,NNE,23,2.2,2.2,90,0.00,,,0.00,WUHU216HW,2013-02-10 05:02:00,
2013-02-09 21:07:00,41.6,38.9,30.34,North,0,1.1,2.2,90,0.00,,,0.00,WUHU216HW,2013-02-10 05:07:00,
2013-02-09 21:12:00,41.6,38.9,30.34,North,0,0.0,1.8,90,0.00,,,0.00,WUHU216HW,2013-02-10 05:12:00,
2013-02-09 21:17:00,41.6,38.9,30.35,NNW,338,1.3,1.3,90,0.00,,,0.00,WUHU216HW,2013-02-10 05:17:00,
2013-02-09 21:22:00,41.6,38.9,30.35,NNW,338,1.3,2.0,90,0.00,,,0.00,WUHU216HW,2013-02-10 05:22:00,
2013-02-09 21:27:00,41.6,38.9,30.35,NNW,338,0.4,2.0,90,0.00,,,0.00,WUHU216HW,2013-02-10 05:27:00,
2013-02-09 21:32:00,41.6,38.9,30.35,North,0,1.6,2.2,90,0.00,,,0.00,WUHU216HW,2013-02-10 05:32:00,
2013-02-09 21:37:00,41.6,38.9,30.35,North,0,1.6,2.2,90,0.00,,,0.00,WUHU216HW,2013-02-10 05:37:00,
2013-02-09 21:42:00,41.6,39.2,30.35,NNE,23,1.8,2.2,91,0.00,,,0.00,WUHU216HW,2013-02-10 05:42:00,
2013-02-09 21:47:00,41.6,38.9,30.35,NNW,338,1.1,2.2,90,0.00,,,0.00,WUHU216HW,2013-02-10 05:47:00,
2013-02-09 21:52:00,41.6,39.2,30.35,NNW,338,0.4,1.8,91,0.00,,,0.00,WUHU216HW,2013-02-10 05:52:00,
2013-02-09 21:57:00,41.6,38.9,30.35,North,0,0.4,1.1,90,0.00,,,0.00,WUHU216HW,2013-02-10 05:57:00,
2013-02-09 22:02:00,41.6,39.2,30.35,North,0,0.7,1.1,91,0.00,,,0.00,WUHU216HW,2013-02-10 06:02:00,
2013-02-09 22:07:00,41.6,39.2,30.35,NNE,23,2.5,3.1,91,0.00,,,0.00,WUHU216HW,2013-02-10 06:07:00,
2013-02-09 22:12:00,41.8,39.3,30.35,North,0,1.6,3.1,91,0.00,,,0.00,WUHU216HW,2013-02-10 06:12:00,
2013-02-09 22:17:00,41.6,39.2,30.36,North,0,0.7,2.5,91,0.00,,,0.00,WUHU216HW,2013-02-10 06:17:00,
2013-02-09 22:22:00,41.8,39.3,30.36,NNE,23,3.1,3.1,91,0.00,,,0.00,WUHU216HW,2013-02-10 06:22:00,
2013-02-09 22:27:00,41.8,39.3,30.36,NNE,23,1.1,3.1,91,0.00,,,0.00,WUHU216HW,2013-02-10 06:27:00,
2013-02-09 22:32:00,41.8,39.3,30.36,North,0,0.0,3.1,91,0.00,,,0.00,WUHU216HW,2013-02-10 06:32:00,
2013-02-09 22:37:00,41.6,39.2,30.36,NE,45,0.0,1.8,91,0.00,,,0.00,WUHU216HW,2013-02-10 06:37:00,
2013-02-09 22:42:00,41.6,39.2,30.36,NE,45,0.0,1.8,91,0.00,,,0.00,WUHU216HW,2013-02-10 06:42:00,
2013-02-09 22:47:00,41.6,39.2,30.36,NNW,338,0.0,1.8,91,0.00,,,0.00,WUHU216HW,2013-02-10 06:47:00,
2013-02-09 22:52:00,41.6,39.2,30.36,NNE,23,0.9,0.9,91,0.00,,,0.00,WUHU216HW,2013-02-10 06:52:00,
2013-02-09 22:57:00,41.6,39.2,30.36,NNE,23,0.0,0.9,91,0.00,,,0.00,WUHU216HW,2013-02-10 06:57:00,
2013-02-09 23:02:00,41.4,39.0,30.36,NNE,23,0.9,1.1,91,0.00,,,0.00,WUHU216HW,2013-02-10 07:02:00,
2013-02-09 23:07:00,41.4,39.0,30.36,North,0,1.1,1.1,91,0.00,,,0.00,WUHU216HW,2013-02-10 07:07:00,
2013-02-09 23:12:00,41.6,39.2,30.37,North,0,1.6,3.1,91,0.00,,,0.00,WUHU216HW,2013-02-10 07:12:00,
2013-02-09 23:17:00,41.6,39.2,30.37,NNE,23,1.1,3.1,91,0.00,,,0.00,WUHU216HW,2013-02-10 07:17:00,
2013-02-09 23:22:00,41.6,39.2,30.37,NNW,338,0.0,2.5,91,0.00,,,0.00,WUHU216HW,2013-02-10 07:22:00,
2013-02-09 23:27:00,41.6,39.2,30.37,North,0,2.5,2.5,91,0.00,,,0.00,WUHU216HW,2013-02-10 07:27:00,
2013-02-09 23:32:00,41.6,39.2,30.37,NNE,23,2.5,2.5,91,0.00,,,0.00,WUHU216HW,2013-02-10 07:32:00,
2013-02-09 23:37:00,41.6,39.2,30.37,North,0,1.1,2.5,91,0.00,,,0.00,WUHU216HW,2013-02-10 07:37:00,
2013-02-09 23:42:00,41.8,39.3,30.37,NNW,338,0.9,2.2,91,0.00,,,0.00,WUHU216HW,2013-02-10 07:42:00,
2013-02-09 23:47:00,41.6,39.2,30.37,North,0,1.6,2.2,91,0.00,,,0.00,WUHU216HW,2013-02-10 07:47:00,
2013-02-09 23:52:00,41.6,39.2,30.37,North,0,0.4,1.6,91,0.00,,,0.00,WUHU216HW,2013-02-10 07:52:00,
2013-02-09 23:57:00,41.6,39.2,30.37,North,0,0.0,0.9,91,0.00,,,0.00,WUHU216HW,2013-02-10 07:57:00,